sensor_id;sensor_type;location;lat;lon;timestamp;P1;durP1;ratioP1;P2;durP2;ratioP2
18780;SDS011;9519;51.890;8.970;2023-06-26T00:02:19;10.00;;;8.13;;
18780;SDS011;9519;51.890;8.970;2023-06-26T00:07:23;9.43;;;7.57;;
18780;SDS011;9519;51.890;8.970;2023-06-26T00:12:25;9.15;;;7.07;;
18780;SDS011;9519;51.890;8.970;2023-06-26T00:17:30;8.82;;;7.43;;
18780;SDS011;9519;51.890;8.970;2023-06-26T00:22:38;9.80;;;7.45;;
18780;SDS011;9519;51.890;8.970;2023-06-26T00:27:41;9.30;;;7.35;;
18780;SDS011;9519;51.890;8.970;2023-06-26T00:32:43;9.77;;;8.15;;
18780;SDS011;9519;51.890;8.970;2023-06-26T00:37:46;9.32;;;8.23;;
18780;SDS011;9519;51.890;8.970;2023-06-26T00:42:49;9.85;;;7.60;;
18780;SDS011;9519;51.890;8.970;2023-06-26T00:47:51;10.07;;;7.97;;
18780;SDS011;9519;51.890;8.970;2023-06-26T00:52:54;10.80;;;8.25;;
18780;SDS011;9519;51.890;8.970;2023-06-26T00:58:00;9.10;;;8.05;;
18780;SDS011;9519;51.890;8.970;2023-06-26T01:03:02;12.40;;;8.05;;
18780;SDS011;9519;51.890;8.970;2023-06-26T01:08:06;11.75;;;8.75;;
18780;SDS011;9519;51.890;8.970;2023-06-26T01:13:10;11.40;;;9.13;;
18780;SDS011;9519;51.890;8.970;2023-06-26T01:18:13;10.88;;;8.60;;
18780;SDS011;9519;51.890;8.970;2023-06-26T01:23:17;10.00;;;8.23;;
18780;SDS011;9519;51.890;8.970;2023-06-26T01:28:31;10.27;;;7.82;;
18780;SDS011;9519;51.890;8.970;2023-06-26T01:33:35;9.55;;;8.50;;
18780;SDS011;9519;51.890;8.970;2023-06-26T01:38:38;10.00;;;8.38;;
18780;SDS011;9519;51.890;8.970;2023-06-26T01:43:43;12.15;;;8.10;;
18780;SDS011;9519;51.890;8.970;2023-06-26T01:49:02;11.25;;;8.32;;
18780;SDS011;9519;51.890;8.970;2023-06-26T01:54:12;9.35;;;8.35;;
18780;SDS011;9519;51.890;8.970;2023-06-26T01:59:26;11.15;;;8.00;;
18780;SDS011;9519;51.890;8.970;2023-06-26T02:04:33;10.05;;;8.73;;
18780;SDS011;9519;51.890;8.970;2023-06-26T02:09:35;10.57;;;8.18;;
18780;SDS011;9519;51.890;8.970;2023-06-26T02:14:41;10.40;;;7.75;;
18780;SDS011;9519;51.890;8.970;2023-06-26T02:19:43;9.43;;;7.57;;
18780;SDS011;9519;51.890;8.970;2023-06-26T02:24:47;11.93;;;8.63;;
18780;SDS011;9519;51.890;8.970;2023-06-26T02:29:51;10.35;;;7.70;;
18780;SDS011;9519;51.890;8.970;2023-06-26T02:34:53;10.90;;;7.57;;
18780;SDS011;9519;51.890;8.970;2023-06-26T02:39:55;11.73;;;7.85;;
18780;SDS011;9519;51.890;8.970;2023-06-26T02:44:58;10.23;;;7.95;;
18780;SDS011;9519;51.890;8.970;2023-06-26T02:50:00;11.10;;;7.68;;
18780;SDS011;9519;51.890;8.970;2023-06-26T02:55:03;13.25;;;8.32;;
18780;SDS011;9519;51.890;8.970;2023-06-26T03:00:08;9.10;;;7.03;;
18780;SDS011;9519;51.890;8.970;2023-06-26T03:05:12;12.07;;;8.73;;
18780;SDS011;9519;51.890;8.970;2023-06-26T03:10:14;11.02;;;9.07;;
18780;SDS011;9519;51.890;8.970;2023-06-26T03:15:17;9.45;;;8.05;;
18780;SDS011;9519;51.890;8.970;2023-06-26T03:20:20;11.55;;;8.68;;
18780;SDS011;9519;51.890;8.970;2023-06-26T03:25:22;8.98;;;7.93;;
18780;SDS011;9519;51.890;8.970;2023-06-26T03:30:25;14.05;;;9.02;;
18780;SDS011;9519;51.890;8.970;2023-06-26T03:35:27;10.25;;;8.90;;
18780;SDS011;9519;51.890;8.970;2023-06-26T03:40:30;11.68;;;8.27;;
18780;SDS011;9519;51.890;8.970;2023-06-26T03:45:33;10.05;;;8.45;;
18780;SDS011;9519;51.890;8.970;2023-06-26T03:50:35;12.23;;;8.52;;
18780;SDS011;9519;51.890;8.970;2023-06-26T03:55:37;12.00;;;9.35;;
18780;SDS011;9519;51.890;8.970;2023-06-26T04:00:40;10.63;;;9.27;;
18780;SDS011;9519;51.890;8.970;2023-06-26T04:05:42;11.93;;;9.70;;
18780;SDS011;9519;51.890;8.970;2023-06-26T04:10:44;12.32;;;9.82;;
18780;SDS011;9519;51.890;8.970;2023-06-26T04:15:49;12.43;;;9.32;;
18780;SDS011;9519;51.890;8.970;2023-06-26T04:21:04;10.85;;;9.13;;
18780;SDS011;9519;51.890;8.970;2023-06-26T04:26:08;10.50;;;9.38;;
18780;SDS011;9519;51.890;8.970;2023-06-26T04:31:15;9.57;;;8.55;;
18780;SDS011;9519;51.890;8.970;2023-06-26T04:36:17;11.15;;;8.80;;
18780;SDS011;9519;51.890;8.970;2023-06-26T04:41:19;11.02;;;8.65;;
18780;SDS011;9519;51.890;8.970;2023-06-26T04:46:23;9.63;;;8.15;;
18780;SDS011;9519;51.890;8.970;2023-06-26T04:51:25;14.63;;;8.80;;
18780;SDS011;9519;51.890;8.970;2023-06-26T04:56:28;13.43;;;9.23;;
18780;SDS011;9519;51.890;8.970;2023-06-26T05:01:32;11.63;;;8.40;;
18780;SDS011;9519;51.890;8.970;2023-06-26T05:06:34;12.70;;;9.43;;
18780;SDS011;9519;51.890;8.970;2023-06-26T05:11:37;12.40;;;8.70;;
18780;SDS011;9519;51.890;8.970;2023-06-26T05:16:40;11.25;;;8.27;;
18780;SDS011;9519;51.890;8.970;2023-06-26T05:21:42;11.70;;;9.15;;
18780;SDS011;9519;51.890;8.970;2023-06-26T05:26:45;11.55;;;8.70;;
18780;SDS011;9519;51.890;8.970;2023-06-26T05:31:49;11.95;;;8.15;;
18780;SDS011;9519;51.890;8.970;2023-06-26T05:36:55;9.45;;;8.05;;
18780;SDS011;9519;51.890;8.970;2023-06-26T05:42:00;15.50;;;8.85;;
18780;SDS011;9519;51.890;8.970;2023-06-26T05:47:04;10.98;;;8.65;;
18780;SDS011;9519;51.890;8.970;2023-06-26T05:52:07;12.25;;;8.80;;
18780;SDS011;9519;51.890;8.970;2023-06-26T05:57:11;9.73;;;8.43;;
18780;SDS011;9519;51.890;8.970;2023-06-26T06:02:16;9.10;;;8.20;;
18780;SDS011;9519;51.890;8.970;2023-06-26T06:07:18;14.95;;;9.25;;
18780;SDS011;9519;51.890;8.970;2023-06-26T06:12:22;15.15;;;8.93;;
18780;SDS011;9519;51.890;8.970;2023-06-26T06:17:25;9.32;;;8.32;;
18780;SDS011;9519;51.890;8.970;2023-06-26T06:22:27;10.90;;;8.20;;
18780;SDS011;9519;51.890;8.970;2023-06-26T06:27:29;8.10;;;6.10;;
18780;SDS011;9519;51.890;8.970;2023-06-26T06:32:33;8.82;;;6.55;;
18780;SDS011;9519;51.890;8.970;2023-06-26T06:37:35;9.40;;;6.00;;
18780;SDS011;9519;51.890;8.970;2023-06-26T06:42:38;10.05;;;6.35;;
18780;SDS011;9519;51.890;8.970;2023-06-26T06:47:42;8.15;;;6.53;;
18780;SDS011;9519;51.890;8.970;2023-06-26T06:52:44;11.63;;;7.07;;
18780;SDS011;9519;51.890;8.970;2023-06-26T06:57:46;10.23;;;6.90;;
18780;SDS011;9519;51.890;8.970;2023-06-26T07:02:49;13.18;;;8.13;;
18780;SDS011;9519;51.890;8.970;2023-06-26T07:07:51;12.25;;;7.40;;
18780;SDS011;9519;51.890;8.970;2023-06-26T07:12:53;11.80;;;7.60;;
18780;SDS011;9519;51.890;8.970;2023-06-26T07:17:57;11.68;;;7.57;;
18780;SDS011;9519;51.890;8.970;2023-06-26T07:22:59;11.85;;;8.77;;
18780;SDS011;9519;51.890;8.970;2023-06-26T07:28:01;11.70;;;8.00;;
18780;SDS011;9519;51.890;8.970;2023-06-26T07:33:04;10.52;;;7.70;;
18780;SDS011;9519;51.890;8.970;2023-06-26T07:38:07;9.20;;;7.70;;
18780;SDS011;9519;51.890;8.970;2023-06-26T07:43:09;13.98;;;8.50;;
18780;SDS011;9519;51.890;8.970;2023-06-26T07:48:12;11.77;;;7.78;;
18780;SDS011;9519;51.890;8.970;2023-06-26T07:53:14;12.23;;;7.85;;
18780;SDS011;9519;51.890;8.970;2023-06-26T07:58:16;11.02;;;7.40;;
18780;SDS011;9519;51.890;8.970;2023-06-26T08:03:20;9.73;;;7.10;;
18780;SDS011;9519;51.890;8.970;2023-06-26T08:08:23;14.55;;;7.85;;
18780;SDS011;9519;51.890;8.970;2023-06-26T08:13:25;10.38;;;7.65;;
18780;SDS011;9519;51.890;8.970;2023-06-26T08:18:30;12.05;;;7.03;;
18780;SDS011;9519;51.890;8.970;2023-06-26T08:23:32;11.77;;;8.18;;
18780;SDS011;9519;51.890;8.970;2023-06-26T08:28:34;11.80;;;7.85;;
18780;SDS011;9519;51.890;8.970;2023-06-26T08:33:38;13.63;;;9.13;;
18780;SDS011;9519;51.890;8.970;2023-06-26T08:38:40;14.20;;;9.55;;
18780;SDS011;9519;51.890;8.970;2023-06-26T08:43:42;12.90;;;8.98;;
18780;SDS011;9519;51.890;8.970;2023-06-26T08:48:48;12.27;;;9.27;;
18780;SDS011;9519;51.890;8.970;2023-06-26T08:53:57;17.30;;;9.70;;
18780;SDS011;9519;51.890;8.970;2023-06-26T08:59:01;12.75;;;9.25;;
18780;SDS011;9519;51.890;8.970;2023-06-26T09:04:04;17.73;;;11.25;;
18780;SDS011;9519;51.890;8.970;2023-06-26T09:09:07;21.98;;;11.43;;
18780;SDS011;9519;51.890;8.970;2023-06-26T09:14:10;14.48;;;11.23;;
18780;SDS011;9519;51.890;8.970;2023-06-26T09:19:16;14.38;;;11.57;;
18780;SDS011;9519;51.890;8.970;2023-06-26T09:24:18;17.92;;;11.77;;
18780;SDS011;9519;51.890;8.970;2023-06-26T09:29:20;17.08;;;11.20;;
18780;SDS011;9519;51.890;8.970;2023-06-26T09:34:31;17.00;;;11.93;;
18780;SDS011;9519;51.890;8.970;2023-06-26T09:39:33;17.17;;;11.95;;
18780;SDS011;9519;51.890;8.970;2023-06-26T09:44:35;21.40;;;11.93;;
18780;SDS011;9519;51.890;8.970;2023-06-26T09:49:42;16.08;;;10.63;;
18780;SDS011;9519;51.890;8.970;2023-06-26T09:54:45;19.60;;;11.52;;
18780;SDS011;9519;51.890;8.970;2023-06-26T09:59:47;16.70;;;11.68;;
18780;SDS011;9519;51.890;8.970;2023-06-26T10:04:52;15.38;;;11.32;;
18780;SDS011;9519;51.890;8.970;2023-06-26T10:09:54;16.90;;;10.77;;
18780;SDS011;9519;51.890;8.970;2023-06-26T10:14:58;17.73;;;10.93;;
18780;SDS011;9519;51.890;8.970;2023-06-26T10:20:06;16.23;;;9.85;;
18780;SDS011;9519;51.890;8.970;2023-06-26T10:25:10;15.25;;;9.80;;
18780;SDS011;9519;51.890;8.970;2023-06-26T10:30:28;13.82;;;8.45;;
18780;SDS011;9519;51.890;8.970;2023-06-26T10:35:42;16.23;;;9.48;;
18780;SDS011;9519;51.890;8.970;2023-06-26T10:40:46;12.75;;;9.93;;
18780;SDS011;9519;51.890;8.970;2023-06-26T10:45:50;13.05;;;8.48;;
18780;SDS011;9519;51.890;8.970;2023-06-26T10:50:57;15.07;;;9.30;;
18780;SDS011;9519;51.890;8.970;2023-06-26T10:56:14;12.73;;;7.35;;
18780;SDS011;9519;51.890;8.970;2023-06-26T11:01:17;13.45;;;7.00;;
18780;SDS011;9519;51.890;8.970;2023-06-26T11:06:23;12.80;;;6.65;;
18780;SDS011;9519;51.890;8.970;2023-06-26T11:17:02;11.82;;;7.25;;
18780;SDS011;9519;51.890;8.970;2023-06-26T11:22:07;15.13;;;7.28;;
18780;SDS011;9519;51.890;8.970;2023-06-26T11:27:09;14.07;;;7.68;;
18780;SDS011;9519;51.890;8.970;2023-06-26T11:32:11;11.50;;;7.15;;
18780;SDS011;9519;51.890;8.970;2023-06-26T11:37:17;11.00;;;7.00;;
18780;SDS011;9519;51.890;8.970;2023-06-26T11:42:20;12.18;;;5.65;;
18780;SDS011;9519;51.890;8.970;2023-06-26T11:47:24;11.40;;;5.15;;
18780;SDS011;9519;51.890;8.970;2023-06-26T11:52:28;9.43;;;5.13;;
18780;SDS011;9519;51.890;8.970;2023-06-26T11:57:30;9.75;;;5.20;;
18780;SDS011;9519;51.890;8.970;2023-06-26T12:02:32;12.73;;;5.55;;
18780;SDS011;9519;51.890;8.970;2023-06-26T12:07:36;10.45;;;6.00;;
18780;SDS011;9519;51.890;8.970;2023-06-26T12:12:39;10.57;;;4.97;;
18780;SDS011;9519;51.890;8.970;2023-06-26T12:17:42;12.93;;;5.18;;
18780;SDS011;9519;51.890;8.970;2023-06-26T12:22:46;9.52;;;4.72;;
18780;SDS011;9519;51.890;8.970;2023-06-26T12:27:50;8.30;;;3.90;;
18780;SDS011;9519;51.890;8.970;2023-06-26T12:32:52;8.43;;;4.43;;
18780;SDS011;9519;51.890;8.970;2023-06-26T12:37:55;8.30;;;3.83;;
18780;SDS011;9519;51.890;8.970;2023-06-26T12:42:57;8.35;;;3.30;;
18780;SDS011;9519;51.890;8.970;2023-06-26T12:48:06;11.13;;;4.07;;
18780;SDS011;9519;51.890;8.970;2023-06-26T12:53:12;7.25;;;3.50;;
18780;SDS011;9519;51.890;8.970;2023-06-26T12:58:15;8.77;;;3.80;;
18780;SDS011;9519;51.890;8.970;2023-06-26T13:03:17;6.72;;;3.33;;
18780;SDS011;9519;51.890;8.970;2023-06-26T13:08:22;6.10;;;3.22;;
18780;SDS011;9519;51.890;8.970;2023-06-26T13:13:24;6.10;;;2.67;;
18780;SDS011;9519;51.890;8.970;2023-06-26T13:18:26;7.45;;;2.97;;
18780;SDS011;9519;51.890;8.970;2023-06-26T13:23:29;6.85;;;3.47;;
18780;SDS011;9519;51.890;8.970;2023-06-26T13:28:31;7.07;;;3.30;;
18780;SDS011;9519;51.890;8.970;2023-06-26T13:33:33;5.00;;;2.63;;
18780;SDS011;9519;51.890;8.970;2023-06-26T13:38:37;4.53;;;2.25;;
18780;SDS011;9519;51.890;8.970;2023-06-26T13:43:41;6.47;;;2.75;;
18780;SDS011;9519;51.890;8.970;2023-06-26T13:48:43;6.82;;;2.25;;
18780;SDS011;9519;51.890;8.970;2023-06-26T13:53:47;8.07;;;2.80;;
18780;SDS011;9519;51.890;8.970;2023-06-26T13:58:49;6.68;;;2.58;;
18780;SDS011;9519;51.890;8.970;2023-06-26T14:03:51;6.40;;;2.70;;
18780;SDS011;9519;51.890;8.970;2023-06-26T14:08:54;8.70;;;2.58;;
18780;SDS011;9519;51.890;8.970;2023-06-26T14:13:56;7.03;;;2.83;;
18780;SDS011;9519;51.890;8.970;2023-06-26T14:18:58;10.43;;;3.45;;
18780;SDS011;9519;51.890;8.970;2023-06-26T14:24:03;6.35;;;2.67;;
18780;SDS011;9519;51.890;8.970;2023-06-26T14:29:05;6.72;;;2.65;;
18780;SDS011;9519;51.890;8.970;2023-06-26T14:34:08;7.43;;;3.10;;
18780;SDS011;9519;51.890;8.970;2023-06-26T14:39:11;8.20;;;3.05;;
18780;SDS011;9519;51.890;8.970;2023-06-26T14:44:13;4.65;;;2.53;;
18780;SDS011;9519;51.890;8.970;2023-06-26T14:49:16;7.20;;;2.72;;
18780;SDS011;9519;51.890;8.970;2023-06-26T14:54:20;6.30;;;2.42;;
18780;SDS011;9519;51.890;8.970;2023-06-26T14:59:22;7.70;;;2.83;;
18780;SDS011;9519;51.890;8.970;2023-06-26T15:04:24;6.82;;;2.58;;
18780;SDS011;9519;51.890;8.970;2023-06-26T15:09:28;7.78;;;2.58;;
18780;SDS011;9519;51.890;8.970;2023-06-26T15:14:32;8.50;;;2.30;;
18780;SDS011;9519;51.890;8.970;2023-06-26T15:19:34;9.02;;;2.35;;
18780;SDS011;9519;51.890;8.970;2023-06-26T15:24:38;11.85;;;2.30;;
18780;SDS011;9519;51.890;8.970;2023-06-26T15:29:40;8.75;;;2.95;;
18780;SDS011;9519;51.890;8.970;2023-06-26T15:34:43;7.82;;;2.42;;
18780;SDS011;9519;51.890;8.970;2023-06-26T15:39:46;6.18;;;1.88;;
18780;SDS011;9519;51.890;8.970;2023-06-26T15:44:48;4.50;;;1.67;;
18780;SDS011;9519;51.890;8.970;2023-06-26T15:49:50;7.22;;;1.90;;
18780;SDS011;9519;51.890;8.970;2023-06-26T15:54:56;4.50;;;1.40;;
18780;SDS011;9519;51.890;8.970;2023-06-26T15:59:58;5.65;;;1.60;;
18780;SDS011;9519;51.890;8.970;2023-06-26T16:05:01;5.03;;;1.70;;
18780;SDS011;9519;51.890;8.970;2023-06-26T16:10:06;4.10;;;1.55;;
18780;SDS011;9519;51.890;8.970;2023-06-26T16:15:09;5.93;;;1.67;;
18780;SDS011;9519;51.890;8.970;2023-06-26T16:20:12;6.28;;;1.50;;
18780;SDS011;9519;51.890;8.970;2023-06-26T16:25:15;7.72;;;2.38;;
18780;SDS011;9519;51.890;8.970;2023-06-26T16:30:17;8.07;;;1.48;;
18780;SDS011;9519;51.890;8.970;2023-06-26T16:35:19;5.75;;;1.52;;
18780;SDS011;9519;51.890;8.970;2023-06-26T16:40:23;4.30;;;1.52;;
18780;SDS011;9519;51.890;8.970;2023-06-26T16:45:25;4.22;;;1.55;;
18780;SDS011;9519;51.890;8.970;2023-06-26T16:50:27;6.18;;;1.40;;
18780;SDS011;9519;51.890;8.970;2023-06-26T16:55:30;5.63;;;1.80;;
18780;SDS011;9519;51.890;8.970;2023-06-26T17:00:33;6.03;;;1.70;;
18780;SDS011;9519;51.890;8.970;2023-06-26T17:05:38;6.07;;;1.35;;
18780;SDS011;9519;51.890;8.970;2023-06-26T17:10:43;7.82;;;2.08;;
18780;SDS011;9519;51.890;8.970;2023-06-26T17:15:46;5.90;;;1.38;;
18780;SDS011;9519;51.890;8.970;2023-06-26T17:20:48;4.05;;;1.20;;
18780;SDS011;9519;51.890;8.970;2023-06-26T17:25:52;4.22;;;1.50;;
18780;SDS011;9519;51.890;8.970;2023-06-26T17:30:54;4.90;;;1.38;;
18780;SDS011;9519;51.890;8.970;2023-06-26T17:35:56;9.80;;;1.60;;
18780;SDS011;9519;51.890;8.970;2023-06-26T17:41:00;6.60;;;1.02;;
18780;SDS011;9519;51.890;8.970;2023-06-26T17:46:02;6.43;;;1.40;;
18780;SDS011;9519;51.890;8.970;2023-06-26T17:51:05;6.35;;;1.40;;
18780;SDS011;9519;51.890;8.970;2023-06-26T17:56:08;4.95;;;1.35;;
18780;SDS011;9519;51.890;8.970;2023-06-26T18:01:10;4.80;;;1.40;;
18780;SDS011;9519;51.890;8.970;2023-06-26T18:06:12;7.40;;;1.40;;
18780;SDS011;9519;51.890;8.970;2023-06-26T18:11:16;6.90;;;1.35;;
18780;SDS011;9519;51.890;8.970;2023-06-26T18:16:18;3.53;;;1.15;;
18780;SDS011;9519;51.890;8.970;2023-06-26T18:21:24;5.25;;;1.08;;
18780;SDS011;9519;51.890;8.970;2023-06-26T18:26:28;6.22;;;1.27;;
18780;SDS011;9519;51.890;8.970;2023-06-26T18:31:31;4.07;;;1.20;;
18780;SDS011;9519;51.890;8.970;2023-06-26T18:36:33;4.70;;;1.25;;
18780;SDS011;9519;51.890;8.970;2023-06-26T18:41:36;4.53;;;1.20;;
18780;SDS011;9519;51.890;8.970;2023-06-26T18:46:39;2.88;;;1.02;;
18780;SDS011;9519;51.890;8.970;2023-06-26T18:51:41;5.65;;;1.30;;
18780;SDS011;9519;51.890;8.970;2023-06-26T18:56:44;3.15;;;1.17;;
18780;SDS011;9519;51.890;8.970;2023-06-26T19:01:46;3.90;;;1.17;;
18780;SDS011;9519;51.890;8.970;2023-06-26T19:06:49;2.22;;;1.05;;
18780;SDS011;9519;51.890;8.970;2023-06-26T19:11:52;4.95;;;1.10;;
18780;SDS011;9519;51.890;8.970;2023-06-26T19:16:54;5.30;;;1.10;;
18780;SDS011;9519;51.890;8.970;2023-06-26T19:21:56;7.10;;;1.25;;
18780;SDS011;9519;51.890;8.970;2023-06-26T19:27:01;7.05;;;1.38;;
18780;SDS011;9519;51.890;8.970;2023-06-26T19:32:04;3.75;;;1.30;;
18780;SDS011;9519;51.890;8.970;2023-06-26T19:37:09;4.35;;;1.00;;
18780;SDS011;9519;51.890;8.970;2023-06-26T19:42:13;6.72;;;1.60;;
18780;SDS011;9519;51.890;8.970;2023-06-26T19:47:15;4.53;;;1.00;;
18780;SDS011;9519;51.890;8.970;2023-06-26T19:52:17;2.58;;;1.10;;
18780;SDS011;9519;51.890;8.970;2023-06-26T19:57:20;3.28;;;1.10;;
18780;SDS011;9519;51.890;8.970;2023-06-26T20:02:22;4.30;;;1.13;;
18780;SDS011;9519;51.890;8.970;2023-06-26T20:07:24;3.40;;;1.02;;
18780;SDS011;9519;51.890;8.970;2023-06-26T20:12:28;5.97;;;1.38;;
18780;SDS011;9519;51.890;8.970;2023-06-26T20:17:30;4.65;;;1.40;;
18780;SDS011;9519;51.890;8.970;2023-06-26T20:22:32;4.30;;;1.17;;
18780;SDS011;9519;51.890;8.970;2023-06-26T20:27:35;7.65;;;1.08;;
18780;SDS011;9519;51.890;8.970;2023-06-26T20:32:38;4.80;;;1.05;;
18780;SDS011;9519;51.890;8.970;2023-06-26T20:37:40;4.75;;;1.23;;
18780;SDS011;9519;51.890;8.970;2023-06-26T20:42:44;6.93;;;1.25;;
18780;SDS011;9519;51.890;8.970;2023-06-26T20:47:46;3.80;;;1.25;;
18780;SDS011;9519;51.890;8.970;2023-06-26T20:52:49;4.70;;;1.10;;
18780;SDS011;9519;51.890;8.970;2023-06-26T20:57:54;4.45;;;1.10;;
18780;SDS011;9519;51.890;8.970;2023-06-26T21:02:56;5.32;;;1.10;;
18780;SDS011;9519;51.890;8.970;2023-06-26T21:07:58;5.30;;;1.20;;
18780;SDS011;9519;51.890;8.970;2023-06-26T21:13:02;4.25;;;1.23;;
18780;SDS011;9519;51.890;8.970;2023-06-26T21:18:05;3.80;;;1.00;;
18780;SDS011;9519;51.890;8.970;2023-06-26T21:23:07;5.28;;;1.20;;
18780;SDS011;9519;51.890;8.970;2023-06-26T21:28:10;5.15;;;1.33;;
18780;SDS011;9519;51.890;8.970;2023-06-26T21:33:12;5.20;;;1.48;;
18780;SDS011;9519;51.890;8.970;2023-06-26T21:38:14;6.68;;;1.58;;
18780;SDS011;9519;51.890;8.970;2023-06-26T21:43:18;4.50;;;1.20;;
18780;SDS011;9519;51.890;8.970;2023-06-26T21:48:20;6.57;;;1.73;;
18780;SDS011;9519;51.890;8.970;2023-06-26T21:53:22;3.80;;;1.38;;
18780;SDS011;9519;51.890;8.970;2023-06-26T21:58:25;4.13;;;1.30;;
18780;SDS011;9519;51.890;8.970;2023-06-26T22:03:27;6.47;;;1.52;;
18780;SDS011;9519;51.890;8.970;2023-06-26T22:08:29;6.93;;;1.57;;
18780;SDS011;9519;51.890;8.970;2023-06-26T22:13:32;5.47;;;1.80;;
18780;SDS011;9519;51.890;8.970;2023-06-26T22:18:35;4.72;;;1.63;;
18780;SDS011;9519;51.890;8.970;2023-06-26T22:23:37;3.95;;;1.35;;
18780;SDS011;9519;51.890;8.970;2023-06-26T22:28:40;5.60;;;1.50;;
18780;SDS011;9519;51.890;8.970;2023-06-26T22:33:42;4.75;;;1.35;;
18780;SDS011;9519;51.890;8.970;2023-06-26T22:38:44;4.33;;;1.17;;
18780;SDS011;9519;51.890;8.970;2023-06-26T22:43:48;5.90;;;1.30;;
18780;SDS011;9519;51.890;8.970;2023-06-26T22:48:50;4.43;;;1.40;;
18780;SDS011;9519;51.890;8.970;2023-06-26T22:53:52;6.67;;;1.40;;
18780;SDS011;9519;51.890;8.970;2023-06-26T22:58:55;4.23;;;1.17;;
18780;SDS011;9519;51.890;8.970;2023-06-26T23:03:57;5.45;;;1.40;;
18780;SDS011;9519;51.890;8.970;2023-06-26T23:08:59;4.80;;;1.70;;
18780;SDS011;9519;51.890;8.970;2023-06-26T23:14:03;4.83;;;1.57;;
18780;SDS011;9519;51.890;8.970;2023-06-26T23:19:05;3.73;;;1.43;;
18780;SDS011;9519;51.890;8.970;2023-06-26T23:24:07;6.77;;;1.60;;
18780;SDS011;9519;51.890;8.970;2023-06-26T23:29:11;5.87;;;1.53;;
18780;SDS011;9519;51.890;8.970;2023-06-26T23:34:15;4.70;;;1.43;;
18780;SDS011;9519;51.890;8.970;2023-06-26T23:39:19;5.80;;;1.20;;
18780;SDS011;9519;51.890;8.970;2023-06-26T23:44:23;4.63;;;1.50;;
18780;SDS011;9519;51.890;8.970;2023-06-26T23:49:25;5.40;;;1.30;;
18780;SDS011;9519;51.890;8.970;2023-06-26T23:54:27;5.80;;;1.80;;
18780;SDS011;9519;51.890;8.970;2023-06-26T23:59:32;6.83;;;1.53;;
